Time;durP1;ratioP1;P1;durP2;ratioP2;P2;SDS_P1;SDS_P2;PMS_P1;PMS_P2;Temp;Humidity;BMP_temperature;BMP_pressure;BME280_temperature;BME280_humidity;BME280_pressure;Samples;Min_cycle;Max_cycle;Signal;HPM_P1;HPM_P2
2022/09/05 00:02:09;;;;;;;16.50;3.83;;;;;;;;;;5117844;28;20390;-94
2022/09/05 00:04:45;;;;;;;14.50;3.92;;;;;;;;;;5114842;28;20027;-93
2022/09/05 00:07:26;;;;;;;12.38;3.90;;;;;;;;;;5099397;28;20031;-93
2022/09/05 00:10:04;;;;;;;15.57;3.78;;;;;;;;;;5099037;28;20036;-93
2022/09/05 00:12:34;;;;;;;13.68;3.88;;;;;;;;;;5099677;28;20032;-94
2022/09/05 00:18:22;;;;;;;16.92;4.35;;;;;;;;;;5117392;28;20047;-94
2022/09/05 00:21:02;;;;;;;19.40;3.72;;;;;;;;;;5102664;28;20019;-93
2022/09/05 00:23:31;;;;;;;15.82;3.67;;;;;;;;;;5116260;28;20031;-93
2022/09/05 00:26:12;;;;;;;17.15;3.90;;;;;;;;;;5115860;28;20126;-93
2022/09/05 00:28:41;;;;;;;10.20;3.47;;;;;;;;;;5115722;28;20396;-93
2022/09/05 00:31:07;;;;;;;14.50;4.10;;;;;;;;;;5115712;28;20055;-93
2022/09/05 00:33:42;;;;;;;19.17;3.58;;;;;;;;;;5115689;28;20028;-94
2022/09/05 00:36:19;;;;;;;14.73;3.72;;;;;;;;;;5115731;28;20027;-93
2022/09/05 00:39:14;;;;;;;18.50;3.72;;;;;;;;;;5115542;28;20027;-93
2022/09/05 00:41:52;;;;;;;16.75;4.50;;;;;;;;;;5094743;28;20027;-94
2022/09/05 00:44:23;;;;;;;18.17;4.32;;;;;;;;;;5118487;27;20342;-93
2022/09/05 00:47:11;;;;;;;15.65;3.78;;;;;;;;;;5119139;27;20027;-94
2022/09/05 00:49:45;;;;;;;11.98;3.65;;;;;;;;;;5118482;27;20033;-93
2022/09/05 00:52:33;;;;;;;17.35;4.30;;;;;;;;;;5118715;27;20037;-93
2022/09/05 00:55:13;;;;;;;15.07;4.15;;;;;;;;;;5118203;27;20035;-93
2022/09/05 00:58:00;;;;;;;13.82;3.58;;;;;;;;;;5118642;27;20023;-94
2022/09/05 01:00:32;;;;;;;14.88;3.70;;;;;;;;;;5118532;27;20117;-93
2022/09/05 01:03:10;;;;;;;17.70;4.35;;;;;;;;;;5099282;28;20444;-94
2022/09/05 01:06:13;;;;;;;14.00;4.03;;;;;;;;;;5074668;28;20017;-93
2022/09/05 01:09:00;;;;;;;16.00;4.20;;;;;;;;;;5081189;28;20031;-93
2022/09/05 01:11:27;;;;;;;14.82;4.03;;;;;;;;;;5094491;28;20516;-93
2022/09/05 01:14:11;;;;;;;10.43;3.58;;;;;;;;;;5097704;28;20023;-92
2022/09/05 01:16:56;;;;;;;16.27;3.70;;;;;;;;;;5082647;27;20020;-93
2022/09/05 01:19:25;;;;;;;17.77;3.80;;;;;;;;;;5096368;28;20020;-93
2022/09/05 01:22:05;;;;;;;16.80;3.92;;;;;;;;;;5083481;28;20500;-94
2022/09/05 01:24:43;;;;;;;18.20;4.57;;;;;;;;;;5077714;28;20472;-94
2022/09/05 01:27:43;;;;;;;15.43;3.58;;;;;;;;;;5078404;28;20048;-94
2022/09/05 01:30:11;;;;;;;15.18;4.03;;;;;;;;;;5045109;28;20355;-94
2022/09/05 01:32:54;;;;;;;15.50;3.88;;;;;;;;;;5077346;28;20107;-94
2022/09/05 01:38:45;;;;;;;12.13;4.25;;;;;;;;;;5095445;28;20146;-93
2022/09/05 01:41:14;;;;;;;14.88;4.45;;;;;;;;;;5077121;28;20031;-93
2022/09/05 01:43:55;;;;;;;16.88;4.10;;;;;;;;;;5077141;28;20080;-93
2022/09/05 01:49:35;;;;;;;15.98;4.00;;;;;;;;;;5033447;28;20036;-93
2022/09/05 01:52:20;;;;;;;15.18;4.18;;;;;;;;;;5069501;28;20035;-93
2022/09/05 01:55:22;;;;;;;20.65;4.32;;;;;;;;;;5090429;28;20489;-93
2022/09/05 01:58:03;;;;;;;12.40;3.13;;;;;;;;;;5113381;28;20027;-93
2022/09/05 02:00:35;;;;;;;15.15;3.55;;;;;;;;;;5097594;28;20477;-93
2022/09/05 02:03:04;;;;;;;17.23;4.10;;;;;;;;;;5094650;28;20023;-93
2022/09/05 02:05:50;;;;;;;18.75;3.22;;;;;;;;;;5076022;28;20020;-93
2022/09/05 02:08:22;;;;;;;16.77;3.83;;;;;;;;;;5076835;28;20019;-93
2022/09/05 02:11:08;;;;;;;16.40;4.10;;;;;;;;;;5076892;28;20079;-93
2022/09/05 02:13:34;;;;;;;17.95;4.65;;;;;;;;;;5076470;28;20557;-92
2022/09/05 02:16:08;;;;;;;22.75;4.72;;;;;;;;;;5076807;28;20024;-94
2022/09/05 02:18:56;;;;;;;14.80;3.78;;;;;;;;;;5096128;28;20024;-94
2022/09/05 02:21:43;;;;;;;14.68;3.83;;;;;;;;;;5097429;28;20020;-94
2022/09/05 02:24:11;;;;;;;12.27;3.72;;;;;;;;;;5092056;28;20548;-94
2022/09/05 02:27:05;;;;;;;9.45;3.03;;;;;;;;;;5077321;28;20035;-93
2022/09/05 02:29:54;;;;;;;18.70;3.95;;;;;;;;;;5089604;28;20545;-94
2022/09/05 02:32:38;;;;;;;13.02;3.85;;;;;;;;;;5080112;28;20028;-94
2022/09/05 02:35:14;;;;;;;15.75;3.47;;;;;;;;;;5076580;28;20035;-93
2022/09/05 02:37:45;;;;;;;12.43;3.70;;;;;;;;;;5076520;28;20046;-92
2022/09/05 02:40:19;;;;;;;17.40;4.00;;;;;;;;;;5076201;28;20131;-92
2022/09/05 02:42:55;;;;;;;12.65;3.20;;;;;;;;;;5105768;28;20060;-93
2022/09/05 02:45:26;;;;;;;12.32;3.45;;;;;;;;;;5096488;28;20043;-93
2022/09/05 02:48:11;;;;;;;16.73;4.07;;;;;;;;;;5097409;28;20030;-93
2022/09/05 02:50:51;;;;;;;10.27;3.45;;;;;;;;;;5096885;28;20023;-93
2022/09/05 02:53:19;;;;;;;11.95;3.60;;;;;;;;;;5090621;28;20024;-93
2022/09/05 02:56:14;;;;;;;;;;;;;;;;;;;;;
2022/09/05 03:04:56;;;;;;;14.20;3.22;;;;;;;;;;5114609;28;20027;-93
2022/09/05 03:07:31;;;;;;;17.77;3.83;;;;;;;;;;5095071;28;20062;-94
2022/09/05 03:10:04;;;;;;;23.10;3.88;;;;;;;;;;5096275;28;20015;-93
2022/09/05 03:12:49;;;;;;;11.95;3.53;;;;;;;;;;5096962;28;20042;-93
2022/09/05 03:15:15;;;;;;;10.57;3.15;;;;;;;;;;5096629;28;20023;-94
2022/09/05 03:17:55;;;;;;;14.75;3.53;;;;;;;;;;5098009;28;20019;-93
2022/09/05 03:20:43;;;;;;;18.23;3.88;;;;;;;;;;5100289;28;20026;-93
2022/09/05 03:23:26;;;;;;;10.73;3.47;;;;;;;;;;5100230;28;20114;-93
2022/09/05 03:26:10;;;;;;;23.17;4.15;;;;;;;;;;5097046;28;20351;-94
2022/09/05 03:28:55;;;;;;;11.50;3.00;;;;;;;;;;5096940;28;20073;-93
2022/09/05 03:31:33;;;;;;;15.75;3.67;;;;;;;;;;5096780;28;20066;-94
2022/09/05 03:34:22;;;;;;;12.70;3.70;;;;;;;;;;5097726;28;20435;-93
2022/09/05 03:37:14;;;;;;;11.18;3.38;;;;;;;;;;5081281;28;20115;-93
2022/09/05 03:39:59;;;;;;;13.48;3.97;;;;;;;;;;5096771;28;20501;-93
2022/09/05 03:42:37;;;;;;;15.10;3.72;;;;;;;;;;5107670;28;20532;-93
2022/09/05 03:45:04;;;;;;;15.73;4.05;;;;;;;;;;5116594;28;20398;-93
2022/09/05 03:47:33;;;;;;;17.15;3.50;;;;;;;;;;5116949;28;20027;-93
2022/09/05 03:50:19;;;;;;;19.90;4.13;;;;;;;;;;5107612;28;20079;-93
2022/09/05 03:52:54;;;;;;;15.43;4.25;;;;;;;;;;5100126;28;20024;-93
2022/09/05 03:55:33;;;;;;;14.13;3.67;;;;;;;;;;5084172;28;20034;-94
2022/09/05 03:58:01;;;;;;;15.38;3.90;;;;;;;;;;5079435;28;20110;-94
2022/09/05 04:00:32;;;;;;;17.80;3.90;;;;;;;;;;5113631;28;20050;-93
2022/09/05 04:02:58;;;;;;;20.88;4.75;;;;;;;;;;5116315;28;20024;-93
2022/09/05 04:05:27;;;;;;;13.45;3.63;;;;;;;;;;5116673;28;20031;-93
2022/09/05 04:08:05;;;;;;;19.98;3.80;;;;;;;;;;5116316;28;20027;-92
2022/09/05 04:10:44;;;;;;;12.45;4.20;;;;;;;;;;5116014;28;20031;-91
2022/09/05 04:13:19;;;;;;;14.02;3.80;;;;;;;;;;5106713;28;20023;-91
2022/09/05 04:16:04;;;;;;;20.70;4.40;;;;;;;;;;5086856;28;20044;-92
2022/09/05 04:18:44;;;;;;;10.90;4.03;;;;;;;;;;5096075;28;20482;-93
2022/09/05 04:21:13;;;;;;;19.98;4.28;;;;;;;;;;5095602;28;20115;-92
2022/09/05 04:23:56;;;;;;;13.25;4.30;;;;;;;;;;5095893;28;20035;-94
2022/09/05 04:26:25;;;;;;;12.10;4.15;;;;;;;;;;5096368;28;20032;-94
2022/09/05 04:28:54;;;;;;;19.90;4.72;;;;;;;;;;5095504;28;20032;-95
2022/09/05 04:31:32;;;;;;;15.77;4.03;;;;;;;;;;5096007;28;20024;-94
2022/09/05 04:34:20;;;;;;;15.32;4.07;;;;;;;;;;5095853;28;20024;-93
2022/09/05 04:36:50;;;;;;;17.13;4.70;;;;;;;;;;5095663;28;20024;-93
2022/09/05 04:39:19;;;;;;;16.05;4.75;;;;;;;;;;5101364;28;20023;-93
2022/09/05 04:41:52;;;;;;;16.48;4.72;;;;;;;;;;5115867;28;20408;-93
2022/09/05 04:44:25;;;;;;;19.50;4.10;;;;;;;;;;5118024;27;20473;-93
2022/09/05 04:46:54;;;;;;;19.88;4.60;;;;;;;;;;5115380;27;20030;-92
2022/09/05 04:49:33;;;;;;;14.82;4.32;;;;;;;;;;5084232;28;20027;-93
2022/09/05 04:52:20;;;;;;;20.42;4.65;;;;;;;;;;5092160;28;20034;-93
2022/09/05 04:54:53;;;;;;;16.15;4.30;;;;;;;;;;5098248;28;20445;-93
2022/09/05 04:57:25;;;;;;;14.13;4.15;;;;;;;;;;5098435;28;20039;-93
2022/09/05 04:59:53;;;;;;;15.35;4.53;;;;;;;;;;5099104;28;20478;-93
2022/09/05 05:02:26;;;;;;;18.38;4.80;;;;;;;;;;5098490;28;20411;-92
2022/09/05 05:07:54;;;;;;;18.17;4.85;;;;;;;;;;5105531;28;20028;-93
2022/09/05 05:10:46;;;;;;;21.17;5.05;;;;;;;;;;5097915;28;20055;-91
2022/09/05 05:13:21;;;;;;;13.63;4.55;;;;;;;;;;5054706;28;20036;-93
2022/09/05 05:15:52;;;;;;;12.13;4.45;;;;;;;;;;5077994;28;20023;-92
2022/09/05 05:18:23;;;;;;;10.63;4.30;;;;;;;;;;5088027;28;20025;-92
2022/09/05 05:20:55;;;;;;;12.10;4.15;;;;;;;;;;5082198;28;20027;-92
2022/09/05 05:23:41;;;;;;;17.45;4.57;;;;;;;;;;5097878;28;20144;-93
2022/09/05 05:26:13;;;;;;;15.88;4.40;;;;;;;;;;5077453;28;20020;-93
2022/09/05 05:28:39;;;;;;;;;;;;;;;;;;5087154;28;20031;-93
2022/09/05 05:31:16;;;;;;;11.88;4.47;;;;;;;;;;5077474;28;19904;-93
2022/09/05 05:33:46;;;;;;;16.05;5.47;;;;;;;;;;5094780;28;20027;-94
2022/09/05 05:36:24;;;;;;;17.65;4.30;;;;;;;;;;5094383;28;20039;-94
2022/09/05 05:38:55;;;;;;;17.23;4.20;;;;;;;;;;5094478;28;20050;-94
2022/09/05 05:41:45;;;;;;;20.20;4.72;;;;;;;;;;5094336;28;20493;-94
2022/09/05 05:44:15;;;;;;;17.58;5.10;;;;;;;;;;5095001;28;20073;-94
2022/09/05 05:46:46;;;;;;;15.57;4.40;;;;;;;;;;5094270;28;20036;-94
2022/09/05 05:49:22;;;;;;;18.92;4.75;;;;;;;;;;5094451;28;20036;-94
2022/09/05 05:52:03;;;;;;;18.85;4.78;;;;;;;;;;5097364;28;20019;-93
2022/09/05 05:54:42;;;;;;;13.80;4.93;;;;;;;;;;5095552;28;20020;-93
2022/09/05 05:57:34;;;;;;;15.00;4.40;;;;;;;;;;5088385;28;20377;-93
2022/09/05 06:00:23;;;;;;;18.80;5.47;;;;;;;;;;5097605;28;20428;-94
2022/09/05 06:03:16;;;;;;;14.35;5.50;;;;;;;;;;5097356;28;20023;-94
2022/09/05 06:05:42;;;;;;;19.77;5.68;;;;;;;;;;5056112;28;20524;-93
2022/09/05 06:08:17;;;;;;;18.48;5.25;;;;;;;;;;5093978;28;20023;-94
2022/09/05 06:10:43;;;;;;;20.35;5.63;;;;;;;;;;5093801;28;20031;-94
2022/09/05 06:13:12;;;;;;;19.13;6.28;;;;;;;;;;5093522;28;20024;-94
2022/09/05 06:15:51;;;;;;;21.30;7.18;;;;;;;;;;5093844;28;20069;-94
2022/09/05 06:18:22;;;;;;;16.60;7.30;;;;;;;;;;5093759;28;20065;-95
2022/09/05 06:21:07;;;;;;;21.67;8.65;;;;;;;;;;5094638;28;20020;-95
2022/09/05 06:23:49;;;;;;;16.23;7.25;;;;;;;;;;5093415;28;20032;-95
2022/09/05 06:26:15;;;;;;;17.98;9.50;;;;;;;;;;5093574;28;20398;-95
2022/09/05 06:28:43;;;;;;;15.63;7.38;;;;;;;;;;5093808;28;20103;-93
2022/09/05 06:31:18;;;;;;;14.27;6.97;;;;;;;;;;5094049;28;20024;-94
2022/09/05 06:33:56;;;;;;;21.05;7.20;;;;;;;;;;5109287;28;20019;-94
2022/09/05 06:36:23;;;;;;;19.88;5.80;;;;;;;;;;5118042;28;20037;-94
2022/09/05 06:38:55;;;;;;;18.75;5.20;;;;;;;;;;5117685;28;20102;-94
2022/09/05 06:41:42;;;;;;;16.67;4.75;;;;;;;;;;5117076;28;20019;-93
2022/09/05 06:44:29;;;;;;;15.50;4.28;;;;;;;;;;5117128;28;20058;-94
2022/09/05 06:47:02;;;;;;;13.35;4.22;;;;;;;;;;5117173;28;20038;-94
2022/09/05 06:50:04;;;;;;;12.60;3.95;;;;;;;;;;5117562;28;20029;-94
2022/09/05 06:52:32;;;;;;;;;;;;;;;;;;5067912;27;20138;-95
2022/09/05 06:55:19;;;;;;;16.30;4.03;;;;;;;;;;5121831;27;19933;-95
2022/09/05 06:57:54;;;;;;;17.00;4.30;;;;;;;;;;5121091;27;20023;-93
2022/09/05 07:00:22;;;;;;;11.82;4.05;;;;;;;;;;5121426;27;20030;-95
2022/09/05 07:02:56;;;;;;;11.63;3.50;;;;;;;;;;5104945;28;20051;-93
2022/09/05 07:05:39;;;;;;;12.95;3.88;;;;;;;;;;5100755;28;20495;-94
2022/09/05 07:08:23;;;;;;;17.55;4.68;;;;;;;;;;5100938;28;20031;-93
2022/09/05 07:11:02;;;;;;;15.43;3.92;;;;;;;;;;5101253;28;20538;-94
2022/09/05 07:13:32;;;;;;;18.13;4.40;;;;;;;;;;5100618;28;20027;-94
2022/09/05 07:16:04;;;;;;;17.80;4.15;;;;;;;;;;5100670;28;20051;-94
2022/09/05 07:18:36;;;;;;;18.38;3.35;;;;;;;;;;5100588;28;20019;-94
2022/09/05 07:21:09;;;;;;;16.60;4.50;;;;;;;;;;5107073;27;20400;-95
2022/09/05 07:24:02;;;;;;;9.65;3.55;;;;;;;;;;5120787;27;20085;-94
2022/09/05 07:26:32;;;;;;;11.43;3.80;;;;;;;;;;5080006;28;20105;-93
2022/09/05 07:29:04;;;;;;;12.63;3.95;;;;;;;;;;5079887;28;20453;-94
2022/09/05 07:31:35;;;;;;;17.15;4.50;;;;;;;;;;5079694;28;20554;-96
2022/09/05 07:34:09;;;;;;;14.43;3.53;;;;;;;;;;5080728;28;20151;-94
2022/09/05 07:36:42;;;;;;;12.95;3.55;;;;;;;;;;5079752;28;20085;-95
2022/09/05 07:39:12;;;;;;;15.75;4.07;;;;;;;;;;5080123;28;20070;-95
2022/09/05 07:41:43;;;;;;;12.35;3.63;;;;;;;;;;5079737;28;20020;-95
2022/09/05 07:44:20;;;;;;;20.67;3.90;;;;;;;;;;5080298;28;20050;-95
2022/09/05 07:46:55;;;;;;;15.13;3.40;;;;;;;;;;5080737;28;20031;-93
2022/09/05 07:49:26;;;;;;;9.82;3.30;;;;;;;;;;5079531;28;20031;-93
2022/09/05 07:51:53;;;;;;;7.88;2.80;;;;;;;;;;5079407;28;20020;-93
2022/09/05 07:54:33;;;;;;;10.00;3.00;;;;;;;;;;5082780;28;20093;-94
2022/09/05 07:57:03;;;;;;;12.10;3.70;;;;;;;;;;5096681;28;20024;-94
2022/09/05 07:59:38;;;;;;;11.30;3.17;;;;;;;;;;5097037;28;20048;-94
2022/09/05 08:02:05;;;;;;;12.75;3.78;;;;;;;;;;5096397;28;20028;-94
2022/09/05 08:04:35;;;;;;;13.80;3.63;;;;;;;;;;5095749;28;20389;-94
2022/09/05 08:07:06;;;;;;;12.80;4.25;;;;;;;;;;5096149;28;20031;-94
2022/09/05 08:09:52;;;;;;;14.85;3.90;;;;;;;;;;5096132;28;20035;-93
2022/09/05 08:12:20;;;;;;;11.50;4.57;;;;;;;;;;5096215;28;20493;-94
2022/09/05 08:15:03;;;;;;;16.55;4.47;;;;;;;;;;5095882;28;20115;-95
2022/09/05 08:17:32;;;;;;;16.60;3.80;;;;;;;;;;5096041;28;20027;-93
2022/09/05 08:20:14;;;;;;;17.25;4.57;;;;;;;;;;5095726;28;20023;-95
2022/09/05 08:22:55;;;;;;;13.65;4.25;;;;;;;;;;5095662;28;20059;-94
2022/09/05 08:25:33;;;;;;;21.38;4.72;;;;;;;;;;5095755;28;20056;-95
2022/09/05 08:28:15;;;;;;;10.38;3.75;;;;;;;;;;5096115;28;20027;-95
2022/09/05 08:31:03;;;;;;;19.67;4.65;;;;;;;;;;5095748;28;20028;-94
2022/09/05 08:33:36;;;;;;;12.88;4.00;;;;;;;;;;5095467;28;20031;-93
2022/09/05 08:36:17;;;;;;;12.30;3.90;;;;;;;;;;5098689;28;20023;-93
2022/09/05 08:38:44;;;;;;;12.45;4.30;;;;;;;;;;5086547;28;20107;-93
2022/09/05 08:41:13;;;;;;;13.52;4.05;;;;;;;;;;5078943;28;20035;-93
2022/09/05 08:43:52;;;;;;;11.63;3.35;;;;;;;;;;5103954;27;20518;-95
2022/09/05 08:46:24;;;;;;;13.20;4.10;;;;;;;;;;5119446;27;20047;-95
2022/09/05 08:49:14;;;;;;;14.00;3.78;;;;;;;;;;5118923;27;20469;-93
2022/09/05 08:52:12;;;;;;;11.65;4.05;;;;;;;;;;5099444;28;20035;-94
2022/09/05 08:54:53;;;;;;;13.40;4.78;;;;;;;;;;5012489;28;20122;-94
2022/09/05 08:57:45;;;;;;;11.55;5.07;;;;;;;;;;5083879;28;20024;-93
2022/09/05 09:00:16;;;;;;;17.60;5.43;;;;;;;;;;5111973;27;20496;-94
2022/09/05 09:02:51;;;;;;;20.27;5.57;;;;;;;;;;5119061;27;20103;-94
2022/09/05 09:05:22;;;;;;;18.08;5.90;;;;;;;;;;5119005;27;20035;-93
2022/09/05 09:08:00;;;;;;;22.90;6.47;;;;;;;;;;5113385;28;20026;-93
2022/09/05 09:10:35;;;;;;;14.30;5.78;;;;;;;;;;5079318;28;20038;-94
2022/09/05 09:13:13;;;;;;;18.48;6.18;;;;;;;;;;5077908;28;20114;-94
2022/09/05 09:15:52;;;;;;;14.27;5.57;;;;;;;;;;5077982;28;20111;-94
2022/09/05 09:18:21;;;;;;;16.65;5.65;;;;;;;;;;5077712;28;20059;-93
2022/09/05 09:20:56;;;;;;;16.23;6.00;;;;;;;;;;5077463;28;20052;-93
2022/09/05 09:23:26;;;;;;;16.13;5.88;;;;;;;;;;5078796;28;20020;-96
2022/09/05 09:28:56;;;;;;;17.55;6.10;;;;;;;;;;5095847;28;20073;-94
2022/09/05 09:31:33;;;;;;;22.02;5.82;;;;;;;;;;5077666;28;20031;-95
2022/09/05 09:34:19;;;;;;;12.63;5.45;;;;;;;;;;5077423;28;20054;-94
2022/09/05 09:37:04;;;;;;;14.38;5.78;;;;;;;;;;5077754;28;20020;-94
2022/09/05 09:39:32;;;;;;;13.18;5.45;;;;;;;;;;5077194;28;20406;-94
2022/09/05 09:42:08;;;;;;;21.02;5.63;;;;;;;;;;5077661;28;20027;-94
2022/09/05 09:45:02;;;;;;;15.00;6.03;;;;;;;;;;5077216;28;20494;-95
2022/09/05 09:47:55;;;;;;;13.85;5.72;;;;;;;;;;5077675;28;20031;-94
2022/09/05 09:50:24;;;;;;;17.83;6.03;;;;;;;;;;5073129;28;20089;-94
2022/09/05 09:52:52;;;;;;;14.88;4.97;;;;;;;;;;5077541;28;20031;-94
2022/09/05 09:55:39;;;;;;;16.55;4.80;;;;;;;;;;5077458;28;20046;-94
2022/09/05 09:58:06;;;;;;;17.95;5.32;;;;;;;;;;5077325;28;20031;-94
2022/09/05 10:00:56;;;;;;;11.25;4.60;;;;;;;;;;5077037;28;20020;-94
2022/09/05 10:03:30;;;;;;;15.07;5.20;;;;;;;;;;5065660;28;20122;-95
2022/09/05 10:05:56;;;;;;;19.35;4.90;;;;;;;;;;5076940;28;20085;-95
2022/09/05 10:08:28;;;;;;;16.60;5.55;;;;;;;;;;5077074;28;20061;-95
2022/09/05 10:11:02;;;;;;;13.77;4.47;;;;;;;;;;5077354;28;20069;-95
2022/09/05 10:13:44;;;;;;;16.45;4.85;;;;;;;;;;5076972;28;20046;-94
2022/09/05 10:16:16;;;;;;;12.98;4.28;;;;;;;;;;5076851;28;20063;-94
2022/09/05 10:19:00;;;;;;;15.02;4.95;;;;;;;;;;5077136;28;20062;-93
2022/09/05 10:21:33;;;;;;;15.23;4.57;;;;;;;;;;5077145;28;20040;-95
2022/09/05 10:24:08;;;;;;;14.10;4.18;;;;;;;;;;5076955;28;20024;-94
2022/09/05 10:27:04;;;;;;;18.13;5.07;;;;;;;;;;5076608;28;20024;-94
2022/09/05 10:29:49;;;;;;;14.05;4.53;;;;;;;;;;5056093;28;20074;-93
2022/09/05 10:32:17;;;;;;;9.98;3.83;;;;;;;;;;5076792;28;20024;-94
2022/09/05 10:34:56;;;;;;;9.40;3.80;;;;;;;;;;5077054;28;20028;-94
2022/09/05 10:37:28;;;;;;;13.95;3.70;;;;;;;;;;5076958;28;20024;-94
2022/09/05 10:39:54;;;;;;;17.80;4.50;;;;;;;;;;5077463;28;20020;-94
2022/09/05 10:42:42;;;;;;;15.85;3.95;;;;;;;;;;5076914;28;20115;-94
2022/09/05 10:45:31;;;;;;;14.25;4.30;;;;;;;;;;5076327;28;20055;-94
2022/09/05 10:48:30;;;;;;;13.30;4.00;;;;;;;;;;5076666;28;20020;-95
2022/09/05 10:51:22;;;;;;;11.63;3.45;;;;;;;;;;5022900;28;20039;-94
2022/09/05 10:53:51;;;;;;;15.57;3.67;;;;;;;;;;5072419;28;20504;-95
2022/09/05 10:56:23;;;;;;;12.35;3.70;;;;;;;;;;5076687;28;20449;-94
2022/09/05 10:58:49;;;;;;;;;;;;;;;;;;5077036;28;20103;-94
2022/09/05 11:01:21;;;;;;;9.95;3.42;;;;;;;;;;5076605;28;19904;-96
2022/09/05 11:03:52;;;;;;;14.88;4.07;;;;;;;;;;5076920;28;20474;-95
2022/09/05 11:06:22;;;;;;;13.32;3.78;;;;;;;;;;5076657;28;20114;-94
2022/09/05 11:08:58;;;;;;;17.67;4.18;;;;;;;;;;5076433;28;20057;-94
2022/09/05 11:11:26;;;;;;;15.32;3.92;;;;;;;;;;5076571;28;20114;-94
2022/09/05 11:13:59;;;;;;;13.57;3.85;;;;;;;;;;5076275;28;20028;-94
2022/09/05 11:16:25;;;;;;;20.35;4.00;;;;;;;;;;5076509;28;20023;-94
2022/09/05 11:18:59;;;;;;;16.13;4.25;;;;;;;;;;5076455;28;20024;-95
2022/09/05 11:21:31;;;;;;;17.42;3.90;;;;;;;;;;5076428;28;20047;-94
2022/09/05 11:24:08;;;;;;;11.95;3.60;;;;;;;;;;5076271;28;20031;-93
2022/09/05 11:26:45;;;;;;;15.95;3.65;;;;;;;;;;5076376;28;20088;-94
2022/09/05 11:29:16;;;;;;;12.18;3.33;;;;;;;;;;5076330;28;20023;-93
2022/09/05 11:31:46;;;;;;;12.57;3.70;;;;;;;;;;5076159;28;20025;-93
2022/09/05 11:34:15;;;;;;;16.63;4.07;;;;;;;;;;5075978;28;20033;-94
2022/09/05 11:36:53;;;;;;;14.25;3.28;;;;;;;;;;5076102;28;20061;-94
2022/09/05 11:39:42;;;;;;;16.48;3.88;;;;;;;;;;5078370;28;20024;-93
2022/09/05 11:42:23;;;;;;;12.60;3.33;;;;;;;;;;5079641;28;20024;-94
2022/09/05 11:44:53;;;;;;;10.60;3.25;;;;;;;;;;5079332;28;20130;-93
2022/09/05 11:47:39;;;;;;;12.05;3.17;;;;;;;;;;5079709;28;20060;-93
2022/09/05 11:50:24;;;;;;;19.23;4.45;;;;;;;;;;5079558;28;20477;-93
2022/09/05 11:52:51;;;;;;;12.68;3.70;;;;;;;;;;5079503;28;20088;-93
2022/09/05 11:55:32;;;;;;;15.38;3.65;;;;;;;;;;5079328;28;20024;-93
2022/09/05 11:58:16;;;;;;;13.77;3.63;;;;;;;;;;5090678;28;20023;-94
2022/09/05 12:01:01;;;;;;;13.68;3.70;;;;;;;;;;5099494;28;20023;-95
2022/09/05 12:03:46;;;;;;;13.57;3.92;;;;;;;;;;5099789;28;20031;-94
2022/09/05 12:06:18;;;;;;;19.20;4.07;;;;;;;;;;5099603;28;20024;-93
2022/09/05 12:08:53;;;;;;;13.57;3.47;;;;;;;;;;5099816;28;20019;-94
2022/09/05 12:11:40;;;;;;;13.90;3.58;;;;;;;;;;5099426;28;20492;-93
2022/09/05 12:14:26;;;;;;;11.35;3.67;;;;;;;;;;5099206;28;20508;-94
2022/09/05 12:16:55;;;;;;;15.23;4.50;;;;;;;;;;5099516;28;20015;-94
2022/09/05 12:19:21;;;;;;;16.20;4.05;;;;;;;;;;5099342;28;20030;-94
2022/09/05 12:22:06;;;;;;;15.90;3.50;;;;;;;;;;5099352;28;20061;-94
2022/09/05 12:24:51;;;;;;;16.40;3.95;;;;;;;;;;5099337;28;20061;-94
2022/09/05 12:27:18;;;;;;;10.93;3.65;;;;;;;;;;5099485;28;20027;-94
2022/09/05 12:29:45;;;;;;;18.73;3.88;;;;;;;;;;5099162;28;20076;-94
2022/09/05 12:32:21;;;;;;;11.98;3.13;;;;;;;;;;5099071;28;20477;-94
2022/09/05 12:35:01;;;;;;;12.13;3.95;;;;;;;;;;5098745;28;20027;-94
2022/09/05 12:37:36;;;;;;;12.38;3.83;;;;;;;;;;5098836;28;20169;-94
2022/09/05 12:40:08;;;;;;;12.25;3.45;;;;;;;;;;5098969;28;20076;-92
2022/09/05 12:42:55;;;;;;;13.40;3.85;;;;;;;;;;5098835;28;20031;-93
2022/09/05 12:45:35;;;;;;;17.10;4.18;;;;;;;;;;5098677;28;20059;-94
2022/09/05 12:48:10;;;;;;;12.88;3.78;;;;;;;;;;5098790;28;20015;-94
2022/09/05 12:50:45;;;;;;;12.63;3.30;;;;;;;;;;5098321;28;20062;-94
2022/09/05 12:53:19;;;;;;;13.63;3.60;;;;;;;;;;5098824;28;20555;-93
2022/09/05 12:55:57;;;;;;;11.80;4.15;;;;;;;;;;5098800;28;20383;-93
2022/09/05 12:58:26;;;;;;;16.23;4.35;;;;;;;;;;5098414;28;20079;-94
2022/09/05 13:00:54;;;;;;;14.48;3.53;;;;;;;;;;5098584;28;20027;-93
2022/09/05 13:03:23;;;;;;;13.65;4.22;;;;;;;;;;5098332;28;20539;-94
2022/09/05 13:05:56;;;;;;;15.10;3.83;;;;;;;;;;5098466;28;20030;-93
2022/09/05 13:08:26;;;;;;;14.23;3.97;;;;;;;;;;5098363;28;20059;-92
2022/09/05 13:10:55;;;;;;;10.63;3.00;;;;;;;;;;5098114;28;20019;-94
2022/09/05 13:13:32;;;;;;;8.95;2.92;;;;;;;;;;5098208;28;20351;-93
2022/09/05 13:16:02;;;;;;;8.38;3.10;;;;;;;;;;5098226;28;20543;-94
2022/09/05 13:18:36;;;;;;;12.20;3.45;;;;;;;;;;5098157;28;20016;-93
2022/09/05 13:21:07;;;;;;;17.63;4.63;;;;;;;;;;5098019;28;20045;-94
2022/09/05 13:23:39;;;;;;;16.83;3.53;;;;;;;;;;5116901;28;20473;-94
2022/09/05 13:26:10;;;;;;;12.07;3.25;;;;;;;;;;5098088;28;20073;-94
2022/09/05 13:28:50;;;;;;;12.60;3.20;;;;;;;;;;5098018;28;20023;-93
2022/09/05 13:31:39;;;;;;;15.35;4.00;;;;;;;;;;5098004;28;20485;-94
2022/09/05 13:34:10;;;;;;;9.52;3.33;;;;;;;;;;5049131;28;20035;-93
2022/09/05 13:36:40;;;;;;;8.10;2.97;;;;;;;;;;5098060;28;20157;-94
2022/09/05 13:39:08;;;;;;;14.90;3.23;;;;;;;;;;5097723;28;20024;-94
2022/09/05 13:41:36;;;;;;;14.45;3.95;;;;;;;;;;5098513;28;20107;-94
2022/09/05 13:44:15;;;;;;;12.00;3.70;;;;;;;;;;5097645;28;20043;-94
2022/09/05 13:46:52;;;;;;;19.58;4.45;;;;;;;;;;5098009;28;20050;-94
2022/09/05 13:49:21;;;;;;;9.65;3.50;;;;;;;;;;5097742;28;20023;-93
2022/09/05 13:51:49;;;;;;;10.30;3.00;;;;;;;;;;5097462;28;20097;-94
2022/09/05 13:54:17;;;;;;;12.93;3.90;;;;;;;;;;5097403;28;20019;-94
2022/09/05 13:57:03;;;;;;;17.77;3.25;;;;;;;;;;5097607;28;20016;-95
2022/09/05 13:59:42;;;;;;;9.95;3.38;;;;;;;;;;5097671;28;20389;-94
2022/09/05 14:02:27;;;;;;;10.98;3.25;;;;;;;;;;5096910;28;20016;-93
2022/09/05 14:04:54;;;;;;;13.07;3.97;;;;;;;;;;5097623;28;20050;-94
2022/09/05 14:07:25;;;;;;;12.63;3.75;;;;;;;;;;5097993;28;20034;-94
2022/09/05 14:09:51;;;;;;;15.07;3.75;;;;;;;;;;5097571;28;20023;-94
2022/09/05 14:12:18;;;;;;;19.10;4.00;;;;;;;;;;5097597;28;20512;-95
2022/09/05 14:14:57;;;;;;;10.75;3.38;;;;;;;;;;5097345;28;20024;-94
2022/09/05 14:17:23;;;;;;;14.50;3.95;;;;;;;;;;5097429;28;20016;-94
2022/09/05 14:22:51;;;;;;;13.88;3.47;;;;;;;;;;5115757;28;20108;-94
2022/09/05 14:25:23;;;;;;;11.15;3.60;;;;;;;;;;5097264;28;20038;-93
2022/09/05 14:27:53;;;;;;;10.25;3.53;;;;;;;;;;5097111;28;20454;-94
2022/09/05 14:30:34;;;;;;;11.00;3.20;;;;;;;;;;5097091;28;20023;-95
2022/09/05 14:33:17;;;;;;;11.13;4.07;;;;;;;;;;5097137;28;20087;-94
2022/09/05 14:35:51;;;;;;;17.27;4.35;;;;;;;;;;5097120;28;20046;-94
2022/09/05 14:38:31;;;;;;;11.52;4.00;;;;;;;;;;5097149;28;20020;-94
2022/09/05 14:41:03;;;;;;;19.30;3.70;;;;;;;;;;5097192;28;20022;-94
2022/09/05 14:43:36;;;;;;;16.05;4.25;;;;;;;;;;5097091;28;20534;-94
2022/09/05 14:46:15;;;;;;;9.70;3.47;;;;;;;;;;5096812;28;20490;-94
2022/09/05 14:48:50;;;;;;;13.93;3.08;;;;;;;;;;5096862;28;20076;-94
2022/09/05 14:51:39;;;;;;;12.18;3.53;;;;;;;;;;5096954;28;20022;-94
2022/09/05 14:54:14;;;;;;;11.57;3.72;;;;;;;;;;5097185;28;20070;-93
2022/09/05 14:57:04;;;;;;;11.63;3.00;;;;;;;;;;5096897;28;20430;-94
2022/09/05 14:59:40;;;;;;;13.73;3.63;;;;;;;;;;5097193;28;20065;-94
2022/09/05 15:02:27;;;;;;;11.55;4.05;;;;;;;;;;5096900;28;20358;-94
2022/09/05 15:04:55;;;;;;;8.82;3.25;;;;;;;;;;5096878;28;20020;-94
2022/09/05 15:07:27;;;;;;;7.82;3.33;;;;;;;;;;5096589;28;20019;-94
2022/09/05 15:10:11;;;;;;;6.50;2.75;;;;;;;;;;5096782;28;20050;-94
2022/09/05 15:12:46;;;;;;;11.90;3.65;;;;;;;;;;5097998;28;20108;-94
2022/09/05 15:15:17;;;;;;;13.43;3.30;;;;;;;;;;5101605;28;20454;-94
2022/09/05 15:17:51;;;;;;;;;;;;;;;;;;5101087;28;20099;-94
2022/09/05 15:20:52;;;;;;;9.80;3.58;;;;;;;;;;5100632;28;19908;-94
2022/09/05 15:23:19;;;;;;;;;;;;;;;;;;5046369;28;20035;-94
2022/09/05 15:25:52;;;;;;;14.00;3.75;;;;;;;;;;5100353;28;20281;-94
2022/09/05 15:28:20;;;;;;;12.43;3.75;;;;;;;;;;5100240;28;20024;-94
2022/09/05 15:30:57;;;;;;;14.43;3.88;;;;;;;;;;5100314;28;20019;-94
2022/09/05 15:33:24;;;;;;;11.32;3.55;;;;;;;;;;5100056;28;20015;-94
2022/09/05 15:35:50;;;;;;;15.23;3.35;;;;;;;;;;5100258;28;20354;-94
2022/09/05 15:38:23;;;;;;;12.50;3.60;;;;;;;;;;5100179;28;20362;-94
2022/09/05 15:41:08;;;;;;;17.90;3.63;;;;;;;;;;5100579;28;20488;-94
2022/09/05 15:43:39;;;;;;;15.68;3.42;;;;;;;;;;5100314;28;20098;-94
2022/09/05 15:46:05;;;;;;;13.07;3.53;;;;;;;;;;5099859;28;20047;-94
2022/09/05 15:48:34;;;;;;;10.48;3.38;;;;;;;;;;5099694;28;20097;-94
2022/09/05 15:51:04;;;;;;;13.98;3.58;;;;;;;;;;5099756;28;20020;-93
2022/09/05 15:53:35;;;;;;;12.60;3.90;;;;;;;;;;5099875;28;20020;-94